createdAt,value
2022-10-11T00:19:38.925Z,5.46
2022-10-11T00:39:38.877Z,5.32
2022-10-11T00:59:38.844Z,5.24
2022-10-11T01:39:38.827Z,4.96
2022-10-11T01:59:38.760Z,4.9
2022-10-11T02:19:38.728Z,4.8
2022-10-11T02:39:38.703Z,4.5
2022-10-11T02:59:38.670Z,4.18
2022-10-11T03:19:38.639Z,4.05
2022-10-11T03:39:38.619Z,3.68
2022-10-11T03:59:38.587Z,3.75
2022-10-11T04:19:38.569Z,3.74
2022-10-11T04:39:38.553Z,3.46
2022-10-11T04:59:38.512Z,3.4
2022-10-11T05:19:38.475Z,3.13
2022-10-11T05:39:38.465Z,2.95
2022-10-11T05:59:38.424Z,3.1
2022-10-11T06:19:38.405Z,3.13
2022-10-11T06:39:38.383Z,3.76
2022-10-11T06:59:38.355Z,5.42
2022-10-11T07:19:38.320Z,7.23
2022-10-11T07:39:38.300Z,8.69
2022-10-11T07:59:38.265Z,9.91
2022-10-11T08:19:38.211Z,11.82
2022-10-11T08:39:38.197Z,12.62
2022-10-11T08:59:38.141Z,14.33
2022-10-11T09:19:38.100Z,15.4
2022-10-11T09:39:38.061Z,15.41
2022-10-11T09:59:38.021Z,14.78
2022-10-11T10:19:41.088Z,16.15
2022-10-11T10:39:37.941Z,15.99
2022-10-11T10:59:37.907Z,15.9
2022-10-11T11:19:37.872Z,15.04
2022-10-11T11:39:37.831Z,15.59
2022-10-11T11:59:37.790Z,17.15
2022-10-11T12:19:37.769Z,17.21
2022-10-11T12:39:37.726Z,17.27
2022-10-11T12:59:37.662Z,18.07
2022-10-11T13:19:37.685Z,18.98
2022-10-11T13:39:37.589Z,17.35
2022-10-11T13:59:37.550Z,16.93
2022-10-11T14:19:37.516Z,18.43
2022-10-11T14:39:37.467Z,18.05
2022-10-11T16:19:37.277Z,14.69
2022-10-11T16:39:37.230Z,13
2022-10-11T16:59:37.188Z,11.43
2022-10-11T17:19:40.249Z,10.16
2022-10-11T17:39:37.138Z,8.98
2022-10-11T17:59:37.095Z,8.21
2022-10-11T18:19:37.056Z,7.64
2022-10-11T18:39:37.026Z,6.97
2022-10-11T18:59:36.986Z,6.49
2022-10-11T19:19:36.971Z,6.13
2022-10-11T19:39:36.953Z,5.71
2022-10-11T19:59:36.908Z,5.43
2022-10-11T20:19:36.891Z,5.07
2022-10-11T20:39:36.843Z,4.78
2022-10-11T20:59:36.819Z,4.51
2022-10-11T21:19:36.781Z,4.28
2022-10-11T21:39:36.764Z,4.08
2022-10-11T21:59:36.733Z,3.75
2022-10-11T22:19:36.714Z,3.64
2022-10-11T22:39:36.678Z,3.38
2022-10-11T22:59:36.647Z,3.27
2022-10-11T23:19:36.628Z,3.15
2022-10-11T23:59:36.570Z,2.66
